Time;durP1;ratioP1;P1;durP2;ratioP2;P2;SDS_P1;SDS_P2;PMS_P1;PMS_P2;Temp;Humidity;BMP_temperature;BMP_pressure;BME280_temperature;BME280_humidity;BME280_pressure;Samples;Min_cycle;Max_cycle;Signal;HPM_P1;HPM_P2
2022/11/14 00:00:48;;;;;;;10.90;6.45;;;6.70;92.00;;;;;;4978505;28;20056;-84
2022/11/14 00:03:36;;;;;;;12.30;7.68;;;6.70;92.00;;;;;;4969390;28;20053;-84
2022/11/14 00:06:21;;;;;;;14.07;8.65;;;6.60;92.10;;;;;;4969271;28;20045;-84
2022/11/14 00:09:06;;;;;;;11.75;7.57;;;6.60;92.10;;;;;;4950113;28;20049;-84
2022/11/14 00:11:53;;;;;;;13.55;8.32;;;6.60;92.10;;;;;;4968713;28;20128;-84
2022/11/14 00:14:38;;;;;;;13.82;7.60;;;6.50;92.20;;;;;;4982407;28;20057;-84
2022/11/14 00:17:24;;;;;;;13.98;8.35;;;6.50;92.20;;;;;;4968655;28;20540;-85
2022/11/14 00:20:11;;;;;;;17.60;9.02;;;6.40;92.20;;;;;;4991394;28;20061;-84
2022/11/14 00:22:56;;;;;;;15.68;9.60;;;6.40;92.20;;;;;;4981829;28;20510;-84
2022/11/14 00:25:45;;;;;;;18.42;11.30;;;6.40;92.30;;;;;;4968604;28;20473;-84
2022/11/14 00:28:31;;;;;;;18.25;10.50;;;6.40;92.30;;;;;;4968563;28;20053;-85
2022/11/14 00:31:17;;;;;;;15.80;8.35;;;6.30;92.30;;;;;;4977079;28;20053;-83
2022/11/14 00:34:03;;;;;;;16.45;8.57;;;6.30;92.40;;;;;;4982207;28;20053;-85
2022/11/14 00:36:48;;;;;;;17.35;9.23;;;6.30;92.40;;;;;;4994963;28;20057;-83
2022/11/14 00:39:34;;;;;;;13.80;7.80;;;6.20;92.40;;;;;;4968311;28;20077;-84
2022/11/14 00:42:20;;;;;;;15.50;8.63;;;6.20;92.40;;;;;;4956865;28;20130;-84
2022/11/14 00:45:06;;;;;;;14.23;7.63;;;6.20;92.40;;;;;;4968713;28;20069;-85
2022/11/14 00:47:52;;;;;;;12.80;7.95;;;6.20;92.50;;;;;;4955209;28;20056;-82
2022/11/14 00:50:38;;;;;;;13.88;8.27;;;6.10;92.50;;;;;;4938499;28;20127;-83
2022/11/14 00:53:23;;;;;;;14.27;8.00;;;6.10;92.50;;;;;;4968441;28;20061;-84
2022/11/14 00:56:08;;;;;;;15.52;8.00;;;6.10;92.50;;;;;;4955189;28;20053;-83
2022/11/14 00:58:54;;;;;;;14.63;7.90;;;6.00;92.60;;;;;;4954900;28;20193;-85
2022/11/14 01:01:40;;;;;;;14.13;7.47;;;6.00;92.60;;;;;;4981647;28;20198;-84
2022/11/14 01:04:25;;;;;;;12.90;7.97;;;6.00;92.60;;;;;;4968299;28;20121;-84
2022/11/14 01:07:11;;;;;;;14.50;7.38;;;6.00;92.70;;;;;;4955144;28;20457;-84
2022/11/14 01:09:56;;;;;;;16.13;8.70;;;5.90;92.90;;;;;;4967736;28;20053;-84
2022/11/14 01:12:41;;;;;;;13.18;7.75;;;5.90;92.70;;;;;;4956779;28;20073;-84
2022/11/14 01:15:27;;;;;;;15.10;8.02;;;5.90;92.80;;;;;;4981137;28;20057;-84
2022/11/14 01:18:16;;;;;;;12.15;7.30;;;5.90;92.80;;;;;;4960872;28;20621;-84
2022/11/14 01:21:07;;;;;;;14.38;7.82;;;5.80;92.80;;;;;;4989056;28;20053;-84
2022/11/14 01:23:53;;;;;;;16.20;8.48;;;5.80;92.80;;;;;;4994616;28;20052;-84
2022/11/14 01:26:38;;;;;;;12.98;7.15;;;5.80;92.80;;;;;;4965165;28;20073;-83
2022/11/14 01:29:24;;;;;;;13.82;8.00;;;5.80;92.90;;;;;;4981125;28;20049;-84
2022/11/14 01:32:09;;;;;;;12.23;7.43;;;5.70;92.90;;;;;;4934922;28;20169;-84
2022/11/14 01:34:55;;;;;;;13.82;7.65;;;5.70;92.90;;;;;;4961779;28;20224;-84
2022/11/14 01:37:40;;;;;;;12.80;7.40;;;5.70;92.90;;;;;;4975423;28;20525;-83
2022/11/14 01:40:26;;;;;;;12.82;6.95;;;5.60;93.00;;;;;;4979970;28;20061;-84
2022/11/14 01:43:18;;;;;;;12.85;6.68;;;5.70;93.00;;;;;;4993978;28;20410;-83
2022/11/14 01:46:03;;;;;;;13.55;8.05;;;5.60;93.00;;;;;;5003854;28;20525;-84
2022/11/14 01:48:57;;;;;;;11.88;7.00;;;5.60;93.00;;;;;;5007415;28;20112;-84
2022/11/14 01:51:46;;;;;;;13.75;7.47;;;5.60;93.00;;;;;;4980449;28;20053;-84
2022/11/14 01:54:35;;;;;;;14.60;8.35;;;5.60;93.10;;;;;;4980568;28;20573;-84
2022/11/14 01:57:27;;;;;;;16.27;8.20;;;5.50;93.10;;;;;;4980388;28;20418;-84
2022/11/14 02:00:14;;;;;;;19.55;9.55;;;5.50;93.10;;;;;;4999167;28;20057;-84
2022/11/14 02:03:00;;;;;;;16.50;8.23;;;5.50;93.10;;;;;;4980623;28;20072;-83
2022/11/14 02:05:47;;;;;;;14.27;7.40;;;5.50;93.10;;;;;;4980073;28;20053;-83
2022/11/14 02:08:34;;;;;;;16.70;8.85;;;5.50;93.20;;;;;;4980846;28;20058;-84
2022/11/14 02:11:19;;;;;;;14.00;6.85;;;5.40;93.20;;;;;;4966855;28;20553;-83
2022/11/14 02:14:06;;;;;;;15.13;7.85;;;5.40;93.20;;;;;;4973374;28;20052;-84
2022/11/14 02:16:51;;;;;;;15.43;8.15;;;5.40;93.20;;;;;;4978159;28;20584;-85
2022/11/14 02:20:10;;;;;;;13.52;8.32;;;5.40;93.20;;;;;;4961448;28;20060;-84
2022/11/14 02:22:55;;;;;;;16.02;9.18;;;5.40;93.20;;;;;;4961057;28;20062;-84
2022/11/14 02:25:40;;;;;;;16.25;8.20;;;5.30;93.20;;;;;;4961120;28;20062;-84
2022/11/14 02:28:26;;;;;;;16.17;8.73;;;5.30;93.30;;;;;;4974449;28;20150;-84
2022/11/14 02:31:14;;;;;;;14.45;8.20;;;5.30;93.30;;;;;;4986096;28;20061;-85
2022/11/14 02:34:00;;;;;;;14.85;7.38;;;5.30;93.30;;;;;;5007463;28;20053;-84
2022/11/14 02:36:45;;;;;;;14.77;7.78;;;5.20;93.30;;;;;;4979825;28;20061;-84
2022/11/14 02:39:31;;;;;;;14.25;7.75;;;5.20;93.30;;;;;;4960016;28;20108;-82
2022/11/14 02:42:16;;;;;;;13.30;7.38;;;5.20;93.30;;;;;;4951425;28;20561;-83
2022/11/14 02:45:02;;;;;;;16.08;7.78;;;5.20;93.40;;;;;;4992993;28;20108;-84
2022/11/14 02:47:48;;;;;;;14.27;7.38;;;5.20;93.40;;;;;;4976371;28;20121;-84
2022/11/14 02:50:33;;;;;;;14.68;7.38;;;5.20;93.40;;;;;;4979606;28;20057;-84
2022/11/14 02:53:18;;;;;;;14.55;7.82;;;5.20;93.40;;;;;;4959453;28;20092;-84
2022/11/14 02:56:04;;;;;;;15.40;8.13;;;5.20;93.40;;;;;;4965787;28;20137;-84
2022/11/14 02:58:49;;;;;;;15.20;7.53;;;5.10;93.40;;;;;;4966214;28;20144;-84
2022/11/14 03:01:35;;;;;;;14.90;7.13;;;5.10;93.40;;;;;;4979715;28;20128;-83
2022/11/14 03:04:20;;;;;;;12.75;7.45;;;5.10;93.40;;;;;;4965721;28;20049;-84
2022/11/14 03:07:06;;;;;;;15.23;7.53;;;5.10;93.50;;;;;;4965938;28;20421;-84
2022/11/14 03:09:55;;;;;;;13.18;6.55;;;5.10;93.50;;;;;;4966184;28;20156;-84
2022/11/14 03:12:40;;;;;;;12.18;6.53;;;5.00;93.50;;;;;;4979635;28;20414;-84
2022/11/14 03:15:26;;;;;;;12.40;6.15;;;5.00;93.50;;;;;;4966094;28;20517;-85
2022/11/14 03:18:11;;;;;;;12.35;6.30;;;5.00;93.50;;;;;;4971986;28;20177;-83
2022/11/14 03:21:03;;;;;;;10.93;5.72;;;5.00;93.50;;;;;;4986530;28;20061;-80
2022/11/14 03:23:48;;;;;;;12.30;5.95;;;5.00;93.50;;;;;;4978849;28;20522;-81
2022/11/14 03:26:34;;;;;;;13.93;5.72;;;5.00;93.60;;;;;;4980935;28;20057;-81
2022/11/14 03:29:20;;;;;;;11.15;6.38;;;4.90;93.60;;;;;;4969447;28;20154;-84
2022/11/14 03:32:05;;;;;;;13.13;6.47;;;4.90;93.60;;;;;;4996667;28;20053;-84
2022/11/14 03:34:51;;;;;;;11.20;5.50;;;4.90;93.60;;;;;;4996993;28;20411;-84
2022/11/14 03:37:39;;;;;;;13.32;6.43;;;4.90;93.60;;;;;;4983633;28;20049;-84
2022/11/14 03:40:24;;;;;;;14.27;8.15;;;4.90;93.60;;;;;;4983272;28;20149;-83
2022/11/14 03:43:10;;;;;;;15.23;8.23;;;4.90;93.60;;;;;;4964614;28;20055;-84
2022/11/14 03:45:58;;;;;;;12.52;6.75;;;4.90;93.60;;;;;;4982681;28;20534;-84
2022/11/14 03:48:44;;;;;;;12.88;6.35;;;4.90;93.60;;;;;;4996543;28;20529;-84
2022/11/14 03:51:29;;;;;;;14.15;7.80;;;4.80;93.60;;;;;;4997595;28;20189;-84
2022/11/14 03:54:15;;;;;;;12.70;6.25;;;4.80;93.90;;;;;;4981268;28;20104;-85
2022/11/14 03:57:00;;;;;;;13.10;6.88;;;4.80;93.70;;;;;;4969212;28;20189;-85
2022/11/14 03:59:46;;;;;;;14.75;7.03;;;4.80;93.70;;;;;;4969203;28;20077;-83
2022/11/14 04:02:32;;;;;;;12.10;6.03;;;4.80;93.70;;;;;;4968956;28;20057;-85
2022/11/14 04:05:20;;;;;;;12.45;5.97;;;4.80;93.70;;;;;;4968881;28;20046;-84
2022/11/14 04:08:06;;;;;;;12.35;6.28;;;4.80;93.70;;;;;;4982677;28;20074;-83
2022/11/14 04:10:51;;;;;;;11.23;5.45;;;4.80;93.80;;;;;;4987772;28;20053;-84
2022/11/14 04:13:37;;;;;;;12.45;5.95;;;4.80;93.70;;;;;;4955703;28;20165;-83
2022/11/14 04:16:22;;;;;;;9.82;5.05;;;4.70;93.70;;;;;;4955232;28;20065;-84
2022/11/14 04:19:08;;;;;;;12.70;5.82;;;4.70;93.70;;;;;;4962763;28;20053;-84
2022/11/14 04:21:53;;;;;;;10.10;4.57;;;4.70;93.80;;;;;;4937620;28;20049;-84
2022/11/14 04:24:39;;;;;;;12.77;5.57;;;4.70;93.80;;;;;;4949112;28;20053;-83
2022/11/14 04:27:24;;;;;;;12.65;5.85;;;4.60;93.80;;;;;;4949267;28;20419;-83
2022/11/14 04:30:10;;;;;;;13.75;7.00;;;4.70;93.80;;;;;;4949371;28;20514;-84
2022/11/14 04:32:55;;;;;;;15.93;6.30;;;4.60;93.80;;;;;;4941087;28;20117;-85
2022/11/14 04:35:41;;;;;;;12.80;6.70;;;4.60;93.80;;;;;;4973470;28;20061;-85
2022/11/14 04:38:26;;;;;;;13.55;6.57;;;4.60;93.80;;;;;;4965056;28;20058;-83
2022/11/14 04:41:16;;;;;;;12.80;5.85;;;4.60;93.80;;;;;;4943215;28;20058;-84
2022/11/14 04:44:04;;;;;;;13.38;6.55;;;4.60;93.80;;;;;;4931917;28;20054;-84
2022/11/14 04:46:49;;;;;;;13.32;6.15;;;4.60;93.80;;;;;;4952404;28;20057;-84
2022/11/14 04:49:35;;;;;;;13.15;6.88;;;4.60;93.90;;;;;;4962337;28;20045;-84
2022/11/14 04:52:20;;;;;;;14.70;6.53;;;4.50;93.80;;;;;;4943050;29;20057;-84
2022/11/14 04:55:06;;;;;;;13.77;6.32;;;4.50;93.90;;;;;;4943851;28;20165;-84
2022/11/14 04:57:56;;;;;;;14.50;6.28;;;4.50;93.90;;;;;;4948829;28;20121;-84
2022/11/14 05:00:42;;;;;;;13.45;6.70;;;4.50;93.90;;;;;;4962351;28;20077;-84
2022/11/14 05:03:28;;;;;;;13.60;6.65;;;4.50;93.90;;;;;;4948817;28;20182;-83
2022/11/14 05:06:13;;;;;;;12.32;5.85;;;4.40;93.90;;;;;;4947283;28;20053;-83
2022/11/14 05:08:59;;;;;;;11.75;5.55;;;4.40;93.90;;;;;;4964612;28;20173;-83
2022/11/14 05:11:44;;;;;;;12.45;5.25;;;4.40;93.90;;;;;;4946641;28;20411;-83
2022/11/14 05:14:30;;;;;;;13.13;6.53;;;4.40;93.90;;;;;;4938468;28;20058;-84
2022/11/14 05:17:16;;;;;;;12.75;5.75;;;4.40;94.00;;;;;;4937278;28;20184;-83
2022/11/14 05:20:01;;;;;;;15.68;6.28;;;4.40;94.00;;;;;;4981603;28;20053;-82
2022/11/14 05:22:46;;;;;;;12.65;6.18;;;4.40;94.00;;;;;;4954125;28;20073;-84
2022/11/14 05:25:32;;;;;;;13.40;6.25;;;4.30;94.00;;;;;;4969274;28;20414;-84
2022/11/14 05:28:17;;;;;;;12.43;5.75;;;4.30;94.00;;;;;;4955833;28;20050;-82
2022/11/14 05:31:06;;;;;;;13.45;6.43;;;4.30;94.00;;;;;;4967240;28;20586;-82
2022/11/14 05:33:51;;;;;;;14.02;6.45;;;4.30;94.00;;;;;;4961396;28;20050;-82
2022/11/14 05:36:37;;;;;;;13.82;6.15;;;4.30;94.00;;;;;;4983468;28;20177;-81
2022/11/14 05:39:22;;;;;;;12.50;5.63;;;4.30;94.00;;;;;;4980390;28;20056;-82
2022/11/14 05:42:08;;;;;;;11.10;5.35;;;4.30;94.00;;;;;;4953175;28;20042;-81
2022/11/14 05:44:53;;;;;;;14.63;5.95;;;4.20;94.00;;;;;;4985310;28;20465;-80
2022/11/14 05:47:38;;;;;;;12.98;6.22;;;4.20;94.00;;;;;;4960076;28;20184;-81
2022/11/14 05:50:24;;;;;;;11.55;6.00;;;4.20;94.00;;;;;;4973179;28;20139;-81
2022/11/14 05:53:09;;;;;;;12.20;5.70;;;4.20;94.10;;;;;;4978064;28;20064;-81
2022/11/14 05:55:54;;;;;;;10.30;4.63;;;4.20;94.10;;;;;;4966568;28;20061;-81
2022/11/14 05:58:40;;;;;;;14.35;5.82;;;4.20;94.10;;;;;;4953359;28;20061;-81
2022/11/14 06:01:26;;;;;;;11.18;5.00;;;4.20;94.10;;;;;;4994657;28;20062;-82
2022/11/14 06:04:13;;;;;;;11.20;6.57;;;4.20;94.30;;;;;;4990659;28;20073;-81
2022/11/14 06:06:59;;;;;;;11.70;5.25;;;4.20;94.10;;;;;;4967042;28;20053;-81
2022/11/14 06:09:44;;;;;;;12.85;6.13;;;4.20;94.10;;;;;;4952552;28;20102;-81
2022/11/14 06:12:31;;;;;;;9.98;5.30;;;4.10;94.10;;;;;;4962682;28;20111;-80
2022/11/14 06:15:17;;;;;;;12.77;5.95;;;4.10;94.10;;;;;;5002548;28;20052;-81
2022/11/14 06:18:02;;;;;;;11.75;5.53;;;4.10;94.10;;;;;;5003256;28;20057;-81
2022/11/14 06:20:48;;;;;;;12.10;5.22;;;4.10;94.10;;;;;;4966254;28;20072;-82
2022/11/14 06:23:34;;;;;;;11.15;6.00;;;4.10;94.10;;;;;;4967232;28;20058;-80
2022/11/14 06:26:30;;;;;;;14.05;6.03;;;4.10;94.10;;;;;;4979506;28;20099;-81
2022/11/14 06:29:15;;;;;;;12.48;5.65;;;4.10;94.10;;;;;;4972188;28;20041;-80
2022/11/14 06:32:01;;;;;;;12.40;5.82;;;4.10;94.10;;;;;;4966308;28;20049;-80
2022/11/14 06:34:46;;;;;;;11.95;5.65;;;4.10;94.10;;;;;;4948399;28;20061;-81
2022/11/14 06:37:34;;;;;;;10.75;5.80;;;4.00;94.40;;;;;;4952860;28;20529;-81
2022/11/14 06:40:23;;;;;;;10.32;5.05;;;4.00;94.10;;;;;;4980091;28;20073;-84
2022/11/14 06:43:08;;;;;;;10.25;4.93;;;4.10;94.10;;;;;;4994360;28;20057;-84
2022/11/14 06:45:57;;;;;;;11.13;5.03;;;4.00;94.10;;;;;;4952972;28;20098;-81
2022/11/14 06:48:43;;;;;;;11.68;4.50;;;4.00;94.10;;;;;;4977802;28;20128;-89
2022/11/14 06:51:30;;;;;;;10.57;4.82;;;4.10;94.10;;;;;;4979628;28;20506;-80
2022/11/14 06:54:16;;;;;;;11.32;5.38;;;4.00;94.10;;;;;;4954100;28;20049;-81
2022/11/14 06:57:02;;;;;;;11.00;4.85;;;4.00;94.10;;;;;;4979333;28;20048;-81
2022/11/14 06:59:47;;;;;;;8.88;4.28;;;4.00;94.10;;;;;;4970443;28;20056;-80
2022/11/14 07:02:33;;;;;;;9.80;4.70;;;4.00;94.10;;;;;;4951998;28;20049;-81
2022/11/14 07:05:18;;;;;;;11.60;5.90;;;4.00;94.40;;;;;;4965597;28;20049;-80
2022/11/14 07:08:03;;;;;;;13.05;5.85;;;4.00;94.10;;;;;;4978928;28;20049;-80
2022/11/14 07:10:49;;;;;;;12.60;5.97;;;4.00;94.10;;;;;;4965508;28;20057;-80
2022/11/14 07:13:35;;;;;;;11.23;5.18;;;4.00;94.10;;;;;;4968333;28;20061;-80
2022/11/14 07:16:30;;;;;;;9.20;4.72;;;4.00;94.10;;;;;;4982472;28;20056;-87
2022/11/14 07:19:15;;;;;;;11.45;5.70;;;4.10;94.10;;;;;;4976318;28;20186;-85
2022/11/14 07:22:01;;;;;;;12.75;6.05;;;4.00;94.10;;;;;;4947339;28;20141;-85
2022/11/14 07:24:49;;;;;;;11.88;5.47;;;4.00;94.00;;;;;;4958702;28;20136;-85
2022/11/14 07:27:35;;;;;;;9.95;5.07;;;4.00;94.00;;;;;;4940481;28;20419;-84
2022/11/14 07:30:20;;;;;;;11.15;5.00;;;4.10;94.00;;;;;;4973775;28;20050;-84
2022/11/14 07:33:06;;;;;;;11.00;4.82;;;4.10;94.00;;;;;;4960237;28;20506;-85
2022/11/14 07:35:51;;;;;;;11.85;5.75;;;4.10;94.00;;;;;;4960394;28;20130;-84
2022/11/14 07:38:37;;;;;;;12.48;5.38;;;4.10;94.00;;;;;;4933624;28;20057;-85
2022/11/14 07:41:23;;;;;;;11.13;5.70;;;4.10;94.00;;;;;;4960229;28;20065;-85
2022/11/14 07:44:09;;;;;;;11.35;5.53;;;4.10;94.00;;;;;;4927945;29;20058;-84
2022/11/14 07:46:54;;;;;;;9.35;4.57;;;4.10;94.00;;;;;;4930813;28;20530;-85
2022/11/14 07:49:40;;;;;;;9.65;4.65;;;4.20;94.00;;;;;;4953459;28;20058;-83
2022/11/14 07:52:25;;;;;;;10.75;4.80;;;4.20;94.00;;;;;;4974657;28;20053;-86
2022/11/14 07:55:11;;;;;;;10.95;4.63;;;4.20;93.90;;;;;;4933689;28;20144;-86
2022/11/14 07:57:58;;;;;;;10.07;4.82;;;4.20;93.90;;;;;;4927879;29;20074;-87
2022/11/14 08:00:44;;;;;;;12.02;5.25;;;4.20;93.90;;;;;;4963677;28;20415;-87
2022/11/14 08:03:30;;;;;;;11.80;5.57;;;4.20;93.90;;;;;;4971147;28;20061;-86
2022/11/14 08:06:16;;;;;;;8.98;4.65;;;4.20;93.90;;;;;;4959812;28;20097;-80
2022/11/14 08:09:01;;;;;;;11.15;5.30;;;4.30;93.90;;;;;;4958998;28;20582;-80
2022/11/14 08:11:47;;;;;;;9.20;4.45;;;4.30;93.90;;;;;;4946624;28;20062;-80
2022/11/14 08:14:33;;;;;;;10.40;4.60;;;4.30;93.90;;;;;;4962502;28;20057;-81
2022/11/14 08:17:20;;;;;;;11.70;5.78;;;4.30;93.80;;;;;;4965678;28;20056;-81
2022/11/14 08:20:08;;;;;;;13.80;6.60;;;4.30;93.80;;;;;;4963619;28;20521;-84
2022/11/14 08:23:01;;;;;;;11.40;5.25;;;4.40;93.80;;;;;;4978709;28;20126;-85
2022/11/14 08:25:46;;;;;;;11.48;5.47;;;4.40;93.80;;;;;;4982694;28;20056;-85
2022/11/14 08:28:32;;;;;;;11.80;6.50;;;4.40;93.80;;;;;;4956554;28;20046;-86
2022/11/14 08:31:19;;;;;;;11.77;5.85;;;4.40;93.70;;;;;;4969910;28;20052;-86
2022/11/14 08:34:04;;;;;;;10.20;5.60;;;4.50;93.70;;;;;;4966853;28;20073;-86
2022/11/14 08:36:49;;;;;;;13.77;7.18;;;4.50;93.70;;;;;;4996066;28;20069;-86
2022/11/14 08:39:35;;;;;;;14.38;7.07;;;4.50;93.70;;;;;;4980516;28;20073;-85
2022/11/14 08:42:20;;;;;;;14.85;7.50;;;4.60;93.70;;;;;;4949869;28;20534;-85
2022/11/14 08:45:06;;;;;;;12.15;6.25;;;4.60;93.60;;;;;;4963281;28;20050;-85
2022/11/14 08:47:55;;;;;;;13.02;6.13;;;4.60;93.60;;;;;;4986512;28;20053;-85
2022/11/14 08:50:41;;;;;;;10.30;5.10;;;4.70;93.60;;;;;;4982460;28;20061;-85
2022/11/14 08:53:26;;;;;;;10.65;5.38;;;4.70;93.60;;;;;;4955008;28;20096;-85
2022/11/14 08:56:12;;;;;;;10.73;5.40;;;4.70;93.60;;;;;;4969017;28;20060;-85
2022/11/14 08:58:58;;;;;;;11.30;5.90;;;4.80;93.50;;;;;;4987316;28;20057;-85
2022/11/14 09:01:44;;;;;;;9.48;4.65;;;4.80;93.50;;;;;;4968736;28;20185;-85
2022/11/14 09:04:29;;;;;;;11.27;5.65;;;4.90;93.50;;;;;;4966645;28;20060;-86
2022/11/14 09:07:15;;;;;;;12.05;5.65;;;4.90;93.50;;;;;;4966851;28;20132;-86
2022/11/14 09:10:01;;;;;;;7.35;4.15;;;4.90;93.40;;;;;;4949382;28;20748;-86
2022/11/14 09:12:46;;;;;;;9.13;5.35;;;5.00;93.40;;;;;;4954755;28;20054;-85
2022/11/14 09:15:32;;;;;;;10.38;5.95;;;5.00;93.40;;;;;;4953394;28;20072;-86
2022/11/14 09:18:18;;;;;;;11.05;5.03;;;5.10;93.40;;;;;;4957126;28;20058;-85
2022/11/14 09:21:07;;;;;;;9.13;4.70;;;5.10;93.30;;;;;;4970735;28;20058;-85
2022/11/14 09:23:53;;;;;;;8.98;4.53;;;5.20;93.30;;;;;;4962168;28;20098;-85
2022/11/14 09:26:48;;;;;;;7.38;3.70;;;5.20;93.30;;;;;;4938410;28;20057;-86
2022/11/14 09:29:41;;;;;;;8.98;4.70;;;5.30;93.30;;;;;;4963318;28;20050;-86
2022/11/14 09:32:26;;;;;;;8.80;4.22;;;5.30;93.20;;;;;;4966456;28;20518;-86
2022/11/14 09:35:12;;;;;;;8.60;4.97;;;5.40;93.20;;;;;;4933895;28;20058;-80
2022/11/14 09:38:06;;;;;;;8.02;3.55;;;5.40;93.20;;;;;;4961363;28;20053;-80
2022/11/14 09:41:12;;;;;;;7.95;4.10;;;5.50;93.20;;;;;;4977058;28;20054;-81
2022/11/14 09:44:34;;;;;;;12.52;5.93;;;5.50;93.10;;;;;;4961359;28;20113;-80
2022/11/14 09:47:32;;;;;;;8.52;5.10;;;5.60;93.00;;;;;;4963084;28;20054;-81
2022/11/14 09:50:27;;;;;;;10.55;5.68;;;5.60;93.00;;;;;;4975368;28;20053;-80
2022/11/14 09:53:26;;;;;;;9.43;4.68;;;5.70;93.00;;;;;;4954549;28;20054;-80
2022/11/14 09:56:18;;;;;;;9.13;4.07;;;5.70;92.90;;;;;;4975077;28;20415;-80
2022/11/14 09:59:09;;;;;;;9.35;4.68;;;5.80;92.90;;;;;;4960746;28;20170;-81
2022/11/14 10:02:13;;;;;;;10.82;6.18;;;5.80;92.90;;;;;;4960811;28;20166;-81
2022/11/14 10:05:11;;;;;;;9.35;5.00;;;5.90;92.90;;;;;;4949338;28;20061;-81
2022/11/14 10:08:27;;;;;;;8.75;4.88;;;5.90;92.90;;;;;;4960639;28;20053;-80
2022/11/14 10:11:21;;;;;;;10.32;5.72;;;6.00;92.90;;;;;;4972709;28;20053;-81
2022/11/14 10:14:40;;;;;;;9.60;5.13;;;6.00;92.90;;;;;;4960697;28;20137;-80
2022/11/14 10:17:40;;;;;;;12.45;7.38;;;6.10;92.80;;;;;;4957370;28;20565;-81
2022/11/14 10:20:35;;;;;;;12.48;6.60;;;6.10;92.80;;;;;;4984224;28;20525;-81
2022/11/14 10:23:49;;;;;;;8.88;5.68;;;6.20;92.80;;;;;;4992617;28;20056;-81
2022/11/14 10:26:42;;;;;;;10.57;5.10;;;6.30;92.70;;;;;;4976970;28;20062;-81
2022/11/14 10:29:45;;;;;;;10.13;5.55;;;6.30;92.70;;;;;;4994148;28;20053;-81
2022/11/14 10:32:58;;;;;;;;;;;6.40;92.70;;;;;;4971102;28;20049;-81
2022/11/14 10:35:57;;;;;;;9.13;5.07;;;6.40;92.70;;;;;;4977331;28;19999;-80
2022/11/14 10:38:59;;;;;;;7.50;3.95;;;6.50;92.70;;;;;;4980340;28;20296;-80
2022/11/14 10:41:48;;;;;;;8.32;4.95;;;6.50;92.90;;;;;;4979298;28;20057;-80
2022/11/14 10:44:54;;;;;;;8.85;5.13;;;6.60;92.60;;;;;;4981123;28;20595;-80
2022/11/14 10:47:45;;;;;;;9.75;5.38;;;6.70;92.60;;;;;;4969152;28;20173;-80
2022/11/14 10:50:32;;;;;;;10.45;5.53;;;6.80;92.50;;;;;;4984467;28;20061;-81
2022/11/14 10:53:44;;;;;;;10.15;6.13;;;6.90;92.50;;;;;;4979299;28;20045;-81
2022/11/14 10:56:29;;;;;;;10.93;6.50;;;7.00;92.50;;;;;;4967859;28;20192;-81
2022/11/14 10:59:14;;;;;;;9.90;5.80;;;7.00;92.40;;;;;;4949169;28;20061;-80
2022/11/14 11:02:00;;;;;;;8.73;5.45;;;7.10;92.40;;;;;;4965764;28;20534;-81
2022/11/14 11:04:46;;;;;;;9.05;5.50;;;7.10;92.40;;;;;;4958919;28;20062;-81
2022/11/14 11:11:28;;;;;;;9.88;6.30;;;7.20;92.40;;;;;;4991543;28;20061;-80
2022/11/14 11:14:18;;;;;;;10.00;5.85;;;7.30;92.30;;;;;;4978844;28;20053;-78
2022/11/14 11:17:14;;;;;;;10.80;6.00;;;7.40;92.30;;;;;;4977474;28;20048;-80
2022/11/14 11:20:32;;;;;;;10.98;6.25;;;7.40;92.30;;;;;;4959668;28;20057;-80
2022/11/14 11:23:24;;;;;;;12.75;6.65;;;7.40;92.30;;;;;;4959309;28;20062;-79
2022/11/14 11:26:18;;;;;;;9.15;5.43;;;7.50;92.30;;;;;;4959334;28;20415;-79
2022/11/14 11:29:03;;;;;;;;;;;7.60;92.30;;;;;;4950878;28;20125;-80
2022/11/14 11:31:58;;;;;;;10.35;6.47;;;7.70;92.30;;;;;;4959305;28;19929;-80
2022/11/14 11:34:44;;;;;;;10.90;6.18;;;7.80;92.10;;;;;;4959556;28;20050;-80
2022/11/14 11:37:39;;;;;;;11.45;7.35;;;8.00;92.00;;;;;;4973657;28;20109;-79
2022/11/14 11:40:27;;;;;;;13.18;8.13;;;8.20;91.90;;;;;;4966979;28;20125;-80
2022/11/14 11:43:31;;;;;;;15.82;8.95;;;8.30;91.80;;;;;;4973694;28;20105;-80
2022/11/14 11:46:44;;;;;;;15.70;9.25;;;8.30;91.80;;;;;;4973804;28;20403;-80
2022/11/14 11:49:36;;;;;;;17.05;9.25;;;8.40;91.70;;;;;;4953947;28;20053;-79
2022/11/14 11:52:47;;;;;;;13.80;9.13;;;8.40;91.80;;;;;;4964430;28;20046;-80
2022/11/14 11:55:45;;;;;;;12.65;7.88;;;8.40;91.80;;;;;;4977388;28;20184;-78
2022/11/14 11:58:47;;;;;;;16.33;9.70;;;8.40;91.80;;;;;;4977428;28;20455;-79
2022/11/14 12:01:33;;;;;;;13.80;8.07;;;8.40;91.80;;;;;;4967238;28;20057;-81
2022/11/14 12:04:19;;;;;;;13.65;8.40;;;8.40;91.90;;;;;;4937023;28;20054;-80
2022/11/14 12:07:17;;;;;;;17.20;10.70;;;8.40;91.90;;;;;;4940914;28;20103;-78
2022/11/14 12:10:13;;;;;;;17.30;9.88;;;8.40;91.90;;;;;;4951166;28;20054;-80
2022/11/14 12:13:31;;;;;;;15.55;9.75;;;8.40;91.90;;;;;;4961678;28;20045;-80
2022/11/14 12:16:20;;;;;;;17.25;9.95;;;8.30;91.90;;;;;;4962821;28;20050;-81
2022/11/14 12:19:41;;;;;;;18.92;10.20;;;8.30;91.90;;;;;;4985318;28;20066;-81
2022/11/14 12:22:44;;;;;;;17.55;9.77;;;8.40;91.90;;;;;;4981277;28;20061;-80
2022/11/14 12:25:29;;;;;;;15.82;10.85;;;8.40;91.90;;;;;;4996654;28;20518;-80
2022/11/14 12:28:40;;;;;;;16.55;9.00;;;8.50;91.90;;;;;;4993081;28;20057;-79
2022/11/14 12:31:32;;;;;;;14.05;9.15;;;8.50;91.80;;;;;;4985636;28;20069;-80
2022/11/14 12:34:35;;;;;;;13.15;8.07;;;8.50;91.80;;;;;;4996239;28;20085;-79
2022/11/14 12:37:30;;;;;;;12.23;6.93;;;8.60;91.80;;;;;;4985223;28;20062;-80
2022/11/14 12:40:34;;;;;;;12.38;7.90;;;8.60;91.80;;;;;;4981422;28;20054;-79
2022/11/14 12:43:43;;;;;;;11.60;7.68;;;8.60;91.80;;;;;;4994796;28;20061;-78
2022/11/14 12:47:04;;;;;;;15.27;8.57;;;8.60;91.70;;;;;;4970329;28;20415;-83
2022/11/14 12:49:53;;;;;;;11.85;7.18;;;8.60;91.70;;;;;;4975080;28;20065;-81
2022/11/14 12:52:45;;;;;;;11.40;6.55;;;8.60;91.70;;;;;;4970308;28;20112;-80
2022/11/14 12:55:30;;;;;;;12.18;7.03;;;8.60;91.70;;;;;;4998592;28;20068;-82
2022/11/14 12:58:36;;;;;;;13.98;8.07;;;8.70;91.70;;;;;;4983616;28;20077;-81
2022/11/14 13:01:53;;;;;;;11.30;6.75;;;8.70;91.70;;;;;;4981585;28;20053;-80
2022/11/14 13:04:41;;;;;;;12.32;7.05;;;8.70;91.60;;;;;;4981219;28;20088;-81
2022/11/14 13:07:46;;;;;;;10.98;6.03;;;8.70;91.70;;;;;;4999691;28;20418;-80
2022/11/14 13:10:39;;;;;;;11.95;5.95;;;8.70;91.70;;;;;;4995405;28;20093;-82
2022/11/14 13:22:49;;;;;;;8.57;4.90;;;8.70;91.90;;;;;;4983343;28;20057;-88
2022/11/14 13:25:34;;;;;;;7.97;5.50;;;8.60;91.70;;;;;;4979466;28;20054;-87
2022/11/14 13:28:51;;;;;;;10.30;5.82;;;8.60;91.70;;;;;;4950245;28;20102;-88
2022/11/14 13:31:46;;;;;;;8.90;4.82;;;8.60;91.70;;;;;;4976955;28;20062;-83
2022/11/14 13:34:40;;;;;;;11.15;5.43;;;8.60;91.70;;;;;;4977266;28;20360;-80
2022/11/14 13:37:35;;;;;;;6.95;4.25;;;8.60;91.70;;;;;;4984021;28;20061;-80
2022/11/14 13:40:37;;;;;;;9.80;3.92;;;8.60;91.80;;;;;;5001493;28;20518;-80
2022/11/14 13:43:46;;;;;;;7.85;4.03;;;8.60;91.70;;;;;;4988433;28;20085;-80
2022/11/14 13:46:59;;;;;;;7.50;3.97;;;8.60;91.70;;;;;;4974685;28;20061;-81
2022/11/14 13:50:02;;;;;;;7.63;4.20;;;8.60;91.70;;;;;;4995353;28;20403;-79
2022/11/14 13:52:47;;;;;;;;;;;8.60;91.70;;;;;;4970540;28;20073;-79
2022/11/14 13:55:45;;;;;;;7.25;3.85;;;8.50;91.80;;;;;;4988092;28;19928;-80
2022/11/14 13:59:00;;;;;;;7.82;4.00;;;8.50;91.80;;;;;;4984461;28;20049;-79
2022/11/14 14:02:12;;;;;;;5.85;3.08;;;8.50;91.80;;;;;;4981987;28;20132;-81
2022/11/14 14:05:25;;;;;;;8.15;3.95;;;8.50;91.80;;;;;;4981576;28;20058;-82
2022/11/14 14:08:23;;;;;;;7.30;3.80;;;8.50;91.80;;;;;;4974145;28;20097;-81
2022/11/14 14:11:54;;;;;;;8.45;4.40;;;8.40;91.80;;;;;;4981056;28;20105;-80
2022/11/14 14:14:55;;;;;;;7.50;3.97;;;8.50;91.80;;;;;;4988725;28;20060;-79
2022/11/14 14:18:05;;;;;;;6.72;3.30;;;8.50;91.80;;;;;;4981000;28;20545;-80
2022/11/14 14:21:44;;;;;;;6.50;3.20;;;8.50;91.80;;;;;;4979589;28;20052;-79
2022/11/14 14:24:47;;;;;;;6.85;4.28;;;8.50;91.80;;;;;;4923345;28;20140;-80
2022/11/14 14:27:50;;;;;;;6.68;3.33;;;8.40;91.80;;;;;;4982688;28;20053;-85
2022/11/14 14:30:39;;;;;;;6.68;4.13;;;8.40;91.90;;;;;;4974509;28;20061;-84
2022/11/14 14:33:24;;;;;;;6.93;3.72;;;8.40;91.90;;;;;;4964045;28;20053;-80
2022/11/14 14:36:27;;;;;;;9.15;4.70;;;8.40;91.90;;;;;;4966585;28;20056;-80
2022/11/14 14:39:24;;;;;;;7.00;3.88;;;8.40;91.90;;;;;;4986528;28;20056;-83
2022/11/14 14:42:12;;;;;;;7.90;4.00;;;8.40;91.90;;;;;;4981394;28;20049;-81
2022/11/14 14:44:58;;;;;;;6.80;3.45;;;8.40;91.90;;;;;;4965952;28;20049;-80
2022/11/14 14:48:14;;;;;;;8.20;4.53;;;8.50;91.90;;;;;;4979151;28;20076;-80
2022/11/14 14:51:04;;;;;;;5.32;2.88;;;8.50;91.90;;;;;;4993201;28;20516;-84
2022/11/14 14:54:06;;;;;;;7.55;3.90;;;8.50;91.90;;;;;;4968879;28;20154;-84
2022/11/14 15:02:06;;;;;;;7.72;4.60;;;8.50;91.90;;;;;;4991274;28;20049;-87
2022/11/14 15:04:51;;;;;;;6.68;4.07;;;8.40;91.90;;;;;;4977902;28;20525;-83
2022/11/14 15:07:45;;;;;;;8.05;3.75;;;8.50;91.90;;;;;;4964683;28;20727;-85
2022/11/14 15:10:32;;;;;;;9.10;4.78;;;8.50;91.90;;;;;;4965934;28;20049;-82